createdAt,value
2023-05-18T00:00:36.570Z,6.62
2023-05-18T00:03:05.004Z,6.69
2023-05-18T00:05:34.549Z,6.73
2023-05-18T00:08:03.001Z,6.65
2023-05-18T00:10:31.185Z,6.68
2023-05-18T00:12:59.296Z,6.69
2023-05-18T00:15:29.087Z,6.59
2023-05-18T00:17:58.720Z,6.52
2023-05-18T00:20:27.639Z,6.68
2023-05-18T00:22:55.771Z,6.68
2023-05-18T00:25:24.129Z,6.55
2023-05-18T00:27:52.312Z,6.49
2023-05-18T00:30:20.733Z,6.57
2023-05-18T00:32:50.191Z,6.45
2023-05-18T00:35:21.492Z,6.49
2023-05-18T00:37:49.610Z,6.52
2023-05-18T00:40:21.191Z,6.54
2023-05-18T00:42:49.324Z,6.49
2023-05-18T00:45:17.413Z,6.52
2023-05-18T00:47:45.851Z,6.50
2023-05-18T00:50:15.852Z,6.45
2023-05-18T00:52:45.318Z,6.37
2023-05-18T00:55:14.514Z,6.40
2023-05-18T00:57:44.695Z,6.35
2023-05-18T01:00:14.150Z,6.25
2023-05-18T01:02:45.955Z,6.30
2023-05-18T01:05:18.130Z,6.33
2023-05-18T01:07:46.330Z,6.48
2023-05-18T01:10:16.597Z,6.38
2023-05-18T01:12:50.524Z,6.36
2023-05-18T01:15:21.636Z,6.39
2023-05-18T01:18:04.770Z,6.28
2023-05-18T01:20:39.094Z,6.15
2023-05-18T01:23:22.506Z,6.26
2023-05-18T01:26:06.712Z,6.03
2023-05-18T01:28:35.118Z,5.97
2023-05-18T01:31:03.953Z,5.95
2023-05-18T01:33:32.207Z,5.99
2023-05-18T01:36:00.529Z,5.88
2023-05-18T01:38:30.009Z,5.96
2023-05-18T01:41:04.473Z,6.03
2023-05-18T01:43:37.196Z,5.93
2023-05-18T01:46:10.228Z,5.96
2023-05-18T01:48:41.253Z,6.00
2023-05-18T01:51:15.082Z,5.98
2023-05-18T01:53:47.764Z,6.03
2023-05-18T01:56:16.150Z,5.95
2023-05-18T01:58:46.060Z,5.86
2023-05-18T02:01:16.196Z,5.82
2023-05-18T02:03:45.353Z,5.89
2023-05-18T02:06:13.577Z,5.88
2023-05-18T02:08:41.764Z,5.86
2023-05-18T02:11:09.858Z,5.81
2023-05-18T02:13:37.967Z,5.81
2023-05-18T02:16:08.620Z,5.76
2023-05-18T02:18:37.178Z,5.82
2023-05-18T02:21:05.559Z,5.81
2023-05-18T02:23:34.014Z,5.81
2023-05-18T02:26:02.635Z,5.79
2023-05-18T02:28:30.845Z,5.72
2023-05-18T02:31:08.037Z,5.70
2023-05-18T02:33:40.203Z,5.73
2023-05-18T02:36:13.606Z,5.71
2023-05-18T02:38:42.784Z,5.71
2023-05-18T02:41:12.129Z,5.71
2023-05-18T02:43:40.257Z,5.62
2023-05-18T02:46:11.090Z,5.72
2023-05-18T02:48:39.207Z,5.70
2023-05-18T02:51:07.350Z,5.67
2023-05-18T02:53:35.873Z,5.67
2023-05-18T02:56:05.035Z,5.52
2023-05-18T02:58:33.253Z,5.56
2023-05-18T03:01:03.631Z,5.51
2023-05-18T03:03:33.360Z,5.59
2023-05-18T03:06:02.452Z,5.51
2023-05-18T03:08:31.601Z,5.51
2023-05-18T03:10:59.919Z,5.46
2023-05-18T03:13:27.995Z,5.38
2023-05-18T03:15:56.733Z,5.41
2023-05-18T03:18:25.898Z,5.37
2023-05-18T03:20:56.238Z,5.42
2023-05-18T03:23:24.518Z,5.36
2023-05-18T03:25:54.375Z,5.42
2023-05-18T03:28:22.634Z,5.44
2023-05-18T03:30:50.901Z,5.44
2023-05-18T03:33:19.117Z,5.40
2023-05-18T03:35:48.719Z,5.44
2023-05-18T03:38:18.634Z,5.43
2023-05-18T03:40:46.749Z,5.45
2023-05-18T03:43:17.959Z,5.34
2023-05-18T03:45:46.076Z,5.29
2023-05-18T03:48:14.304Z,5.33
2023-05-18T03:50:42.498Z,5.28
2023-05-18T03:53:10.900Z,5.25
2023-05-18T03:55:41.926Z,5.33
2023-05-18T03:58:10.034Z,5.30
2023-05-18T04:00:38.125Z,5.38
2023-05-18T04:03:06.675Z,5.31
2023-05-18T04:05:35.064Z,5.35
2023-05-18T04:08:03.109Z,5.32
2023-05-18T04:10:31.273Z,5.34
2023-05-18T04:13:00.838Z,5.32
2023-05-18T04:15:29.337Z,5.29
2023-05-18T04:17:57.631Z,5.41
2023-05-18T04:20:28.371Z,5.37
2023-05-18T04:22:57.792Z,5.40
2023-05-18T04:25:28.097Z,5.41
2023-05-18T04:27:57.042Z,5.49
2023-05-18T04:30:29.684Z,5.46
2023-05-18T04:32:58.407Z,5.50
2023-05-18T04:35:27.060Z,5.48
2023-05-18T04:37:55.343Z,5.53
2023-05-18T04:40:25.384Z,5.55
2023-05-18T04:42:53.699Z,5.54
2023-05-18T04:45:22.906Z,5.63
2023-05-18T04:47:55.267Z,5.66
2023-05-18T04:50:24.733Z,5.75
2023-05-18T04:52:53.987Z,5.77
2023-05-18T04:55:26.406Z,5.83
2023-05-18T04:57:56.918Z,5.91
2023-05-18T05:00:26.485Z,5.96
2023-05-18T05:02:57.293Z,6.03
2023-05-18T05:05:26.522Z,6.16
2023-05-18T05:07:55.842Z,6.20
2023-05-18T05:10:24.702Z,6.30
2023-05-18T05:12:53.149Z,6.38
2023-05-18T05:15:21.883Z,6.40
2023-05-18T05:17:50.215Z,6.51
2023-05-18T05:20:20.406Z,6.54
2023-05-18T05:22:48.707Z,6.65
2023-05-18T05:25:16.900Z,6.68
2023-05-18T05:27:45.371Z,6.79
2023-05-18T05:30:14.014Z,6.89
2023-05-18T05:32:42.213Z,7.00
2023-05-18T05:35:11.118Z,6.91
2023-05-18T05:37:40.764Z,6.99
2023-05-18T05:40:10.257Z,7.08
2023-05-18T05:42:38.462Z,7.14
2023-05-18T05:45:07.973Z,7.21
2023-05-18T05:47:36.270Z,7.17
2023-05-18T05:50:04.786Z,7.16
2023-05-18T05:52:33.920Z,7.16
2023-05-18T05:55:03.519Z,7.23
2023-05-18T05:57:31.696Z,7.31
2023-05-18T05:59:59.924Z,7.36
2023-05-18T06:02:28.489Z,7.48
2023-05-18T06:04:56.608Z,7.45
2023-05-18T06:07:24.973Z,7.47
2023-05-18T06:09:53.278Z,7.48
2023-05-18T06:12:22.861Z,7.54
2023-05-18T06:14:52.955Z,7.55
2023-05-18T06:17:21.410Z,7.57
2023-05-18T06:19:49.522Z,7.65
2023-05-18T06:22:18.198Z,7.65
2023-05-18T06:24:46.576Z,7.68
2023-05-18T06:27:14.656Z,7.68
2023-05-18T06:29:44.219Z,7.67
2023-05-18T06:32:13.514Z,7.67
2023-05-18T06:34:42.543Z,7.67
2023-05-18T06:37:11.593Z,7.82
2023-05-18T06:39:40.442Z,7.89
2023-05-18T06:42:11.353Z,7.92
2023-05-18T06:44:39.585Z,7.97
2023-05-18T06:47:09.403Z,8.07
2023-05-18T06:49:37.516Z,8.18
2023-05-18T06:52:06.176Z,8.34
2023-05-18T06:54:34.336Z,8.51
2023-05-18T06:57:02.671Z,8.66
2023-05-18T06:59:31.001Z,8.80
2023-05-18T07:01:59.241Z,8.98
2023-05-18T07:04:28.780Z,9.10
2023-05-18T07:06:57.012Z,9.19
2023-05-18T07:09:27.393Z,9.34
2023-05-18T07:11:55.576Z,9.55
2023-05-18T07:14:26.627Z,9.77
2023-05-18T07:16:54.824Z,10.03
2023-05-18T07:19:23.622Z,10.24
2023-05-18T07:21:53.223Z,10.47
2023-05-18T07:24:21.364Z,10.60
2023-05-18T07:26:49.517Z,10.79
2023-05-18T07:29:17.720Z,10.92
2023-05-18T07:31:45.904Z,10.90
2023-05-18T07:34:16.217Z,11.07
2023-05-18T07:36:44.370Z,11.26
2023-05-18T07:39:19.395Z,11.45
2023-05-18T07:41:48.563Z,11.59
2023-05-18T07:44:16.910Z,11.81
2023-05-18T07:46:45.242Z,12.04
2023-05-18T07:49:13.466Z,12.27
2023-05-18T07:51:42.462Z,12.18
2023-05-18T07:54:10.598Z,12.36
2023-05-18T07:56:42.433Z,12.49
2023-05-18T07:59:10.935Z,12.80
2023-05-18T08:01:39.984Z,12.96
2023-05-18T08:04:08.348Z,13.04
2023-05-18T08:06:36.795Z,13.15
2023-05-18T08:09:05.014Z,13.17
2023-05-18T08:11:33.158Z,13.22
2023-05-18T08:14:05.468Z,13.38
2023-05-18T08:16:37.306Z,13.47
2023-05-18T08:19:05.654Z,13.63
2023-05-18T08:21:34.669Z,13.29
2023-05-18T08:24:04.061Z,13.47
2023-05-18T08:26:32.204Z,13.71
2023-05-18T08:29:09.609Z,13.84
2023-05-18T08:31:40.279Z,13.99
2023-05-18T08:34:09.404Z,14.17
2023-05-18T08:36:38.406Z,14.24
2023-05-18T08:39:06.679Z,14.37
2023-05-18T08:41:42.163Z,14.35
2023-05-18T08:44:16.481Z,14.57
2023-05-18T08:46:51.191Z,14.58
2023-05-18T08:49:21.938Z,14.48
2023-05-18T08:51:56.896Z,14.59
2023-05-18T08:54:26.187Z,14.55
2023-05-18T08:56:54.826Z,14.45
2023-05-18T08:59:25.899Z,14.42
2023-05-18T09:01:55.653Z,14.51
2023-05-18T09:04:25.090Z,14.34
2023-05-18T09:06:55.539Z,14.30
2023-05-18T09:09:25.393Z,14.40
2023-05-18T09:11:54.073Z,14.52
2023-05-18T09:14:25.835Z,14.35
2023-05-18T09:16:55.582Z,14.12
2023-05-18T09:19:24.736Z,13.86
2023-05-18T09:21:53.149Z,13.79
2023-05-18T09:24:24.584Z,14.01
2023-05-18T09:26:53.141Z,13.99
2023-05-18T09:29:22.649Z,14.10
2023-05-18T09:31:52.004Z,14.14
2023-05-18T09:34:21.796Z,14.20
2023-05-18T09:36:53.109Z,14.06
2023-05-18T09:39:21.431Z,14.31
2023-05-18T09:41:56.887Z,14.35
2023-05-18T09:44:32.419Z,14.46
2023-05-18T09:47:00.552Z,14.24
2023-05-18T09:49:32.051Z,14.23
2023-05-18T09:52:01.097Z,14.33
2023-05-18T09:54:29.914Z,14.37
2023-05-18T09:57:09.655Z,14.34
2023-05-18T09:59:39.280Z,14.62
2023-05-18T10:02:09.066Z,14.78
2023-05-18T10:04:40.107Z,14.98
2023-05-18T10:07:13.125Z,14.90
2023-05-18T10:09:41.469Z,14.98
2023-05-18T10:12:13.324Z,15.18
2023-05-18T10:14:42.834Z,15.48
2023-05-18T10:17:15.488Z,15.37
2023-05-18T10:19:49.128Z,15.51
2023-05-18T10:22:18.668Z,15.26
2023-05-18T10:24:51.820Z,15.63
2023-05-18T10:27:25.427Z,15.75
2023-05-18T10:29:55.176Z,15.55
2023-05-18T10:32:26.612Z,15.81
2023-05-18T10:34:57.934Z,15.97
2023-05-18T10:37:30.784Z,15.93
2023-05-18T10:40:01.326Z,16.11
2023-05-18T10:42:31.827Z,16.14
2023-05-18T10:45:01.693Z,16.15
2023-05-18T10:47:30.381Z,16.17
2023-05-18T10:50:00.680Z,16.02
2023-05-18T10:52:32.040Z,16.19
2023-05-18T10:55:01.104Z,16.34
2023-05-18T10:57:35.763Z,16.21
2023-05-18T11:00:07.804Z,16.30
2023-05-18T11:02:42.679Z,16.33
2023-05-18T11:05:13.674Z,16.12
2023-05-18T11:07:46.465Z,16.48
2023-05-18T11:10:15.476Z,16.75
2023-05-18T11:12:46.505Z,16.71
2023-05-18T11:15:14.730Z,16.63
2023-05-18T11:17:43.854Z,16.92
2023-05-18T11:20:18.616Z,16.75
2023-05-18T11:22:51.607Z,17.11
2023-05-18T11:25:43.597Z,17.23
2023-05-18T11:28:13.744Z,17.13
2023-05-18T11:30:52.273Z,17.10
2023-05-18T11:33:26.170Z,17.31
2023-05-18T11:36:07.448Z,17.45
2023-05-18T11:38:50.522Z,17.54
2023-05-18T11:41:29.184Z,17.46
2023-05-18T11:44:07.072Z,17.60
2023-05-18T11:46:35.417Z,17.51
2023-05-18T11:49:08.769Z,17.79
2023-05-18T11:51:58.553Z,17.88
2023-05-18T11:54:27.520Z,17.69
2023-05-18T11:56:56.034Z,17.65
2023-05-18T11:59:34.452Z,17.93
2023-05-18T12:02:04.034Z,18.24
2023-05-18T12:04:33.512Z,18.41
2023-05-18T12:07:06.729Z,18.82
2023-05-18T12:09:35.532Z,19.04
2023-05-18T12:12:03.946Z,18.99
2023-05-18T12:14:33.232Z,18.77
2023-05-18T12:17:02.541Z,18.88
2023-05-18T12:19:30.582Z,19.03
2023-05-18T12:21:59.189Z,19.19
2023-05-18T12:24:29.908Z,19.38
2023-05-18T12:27:06.838Z,19.16
2023-05-18T12:29:36.041Z,19.33
2023-05-18T12:32:08.193Z,19.38
2023-05-18T12:34:36.776Z,19.19
2023-05-18T12:37:05.263Z,18.94
2023-05-18T12:39:37.867Z,19.14
2023-05-18T12:42:13.016Z,18.87
2023-05-18T12:44:43.907Z,18.47
2023-05-18T12:47:13.194Z,18.95
2023-05-18T12:49:42.958Z,18.47
2023-05-18T12:52:13.358Z,18.62
2023-05-18T12:54:58.755Z,18.26
2023-05-18T12:57:31.040Z,18.65
2023-05-18T12:59:59.659Z,19.02
2023-05-18T13:02:32.772Z,19.11
2023-05-18T13:05:06.127Z,19.30
2023-05-18T13:07:36.609Z,19.28
2023-05-18T13:10:10.768Z,19.14
2023-05-18T13:12:46.401Z,19.28
2023-05-18T13:15:16.735Z,19.63
2023-05-18T13:17:58.776Z,19.80
2023-05-18T13:20:35.193Z,19.37
2023-05-18T13:23:05.764Z,19.41
2023-05-18T13:25:35.435Z,19.48
2023-05-18T13:28:03.968Z,19.50
2023-05-18T13:30:32.228Z,19.47
2023-05-18T13:33:01.478Z,19.52
2023-05-18T13:35:32.724Z,19.72
2023-05-18T13:38:01.209Z,19.65
2023-05-18T13:40:29.486Z,19.60
2023-05-18T13:42:59.020Z,19.93
2023-05-18T13:45:27.303Z,20.24
2023-05-18T13:47:55.445Z,20.69
2023-05-18T13:50:27.157Z,20.66
2023-05-18T13:52:55.405Z,20.35
2023-05-18T13:55:23.648Z,19.99
2023-05-18T13:57:51.903Z,20.33
2023-05-18T14:00:22.077Z,20.50
2023-05-18T14:02:50.360Z,20.53
2023-05-18T14:05:22.483Z,20.71
2023-05-18T14:07:52.400Z,20.96
2023-05-18T14:10:20.812Z,21.22
2023-05-18T14:12:48.937Z,21.38
2023-05-18T14:15:17.293Z,21.45
2023-05-18T14:17:46.948Z,20.42
2023-05-18T14:20:15.115Z,20.39
2023-05-18T14:22:43.243Z,21.23
2023-05-18T14:25:11.400Z,21.25
2023-05-18T14:27:41.825Z,21.29
2023-05-18T14:30:13.219Z,21.13
2023-05-18T14:32:41.479Z,21.95
2023-05-18T14:35:11.486Z,21.84
2023-05-18T14:37:39.617Z,21.77
2023-05-18T14:40:09.246Z,21.59
2023-05-18T14:42:37.630Z,21.48
2023-05-18T14:45:06.440Z,21.44
2023-05-18T14:47:34.620Z,21.36
2023-05-18T14:50:02.829Z,21.86
2023-05-18T14:52:32.298Z,22.24
2023-05-18T14:55:00.748Z,22.33
2023-05-18T14:57:28.903Z,22.07
2023-05-18T14:59:57.017Z,21.95
2023-05-18T15:02:25.362Z,22.16
2023-05-18T15:04:53.461Z,22.00
2023-05-18T15:07:21.912Z,22.03
2023-05-18T15:09:51.573Z,21.85
2023-05-18T15:12:20.657Z,21.33
2023-05-18T15:14:48.767Z,21.93
2023-05-18T15:17:17.984Z,21.90
2023-05-18T15:19:47.138Z,20.97
2023-05-18T15:22:15.330Z,21.07
2023-05-18T15:24:43.625Z,21.01
2023-05-18T15:27:15.546Z,20.45
2023-05-18T15:29:43.662Z,20.79
2023-05-18T15:32:11.770Z,20.91
2023-05-18T15:34:40.425Z,21.18
2023-05-18T15:37:08.545Z,21.04
2023-05-18T15:39:38.631Z,20.98
2023-05-18T15:42:07.283Z,20.89
2023-05-18T15:44:36.874Z,20.51
2023-05-18T15:47:05.742Z,20.27
2023-05-18T15:49:33.888Z,20.31
2023-05-18T15:52:02.258Z,20.54
2023-05-18T15:54:30.425Z,20.18
2023-05-18T15:57:01.979Z,20.50
2023-05-18T15:59:30.172Z,20.26
2023-05-18T16:01:59.627Z,20.15
2023-05-18T16:04:27.774Z,20.06
2023-05-18T16:06:56.253Z,19.92
2023-05-18T16:09:24.342Z,20.03
2023-05-18T16:11:55.149Z,20.02
2023-05-18T16:14:26.095Z,19.83
2023-05-18T16:16:54.275Z,19.83
2023-05-18T16:19:23.791Z,19.71
2023-05-18T16:21:51.976Z,19.55
2023-05-18T16:24:20.115Z,18.88
2023-05-18T16:26:48.396Z,18.82
2023-05-18T16:29:16.471Z,18.93
2023-05-18T16:31:44.946Z,18.94
2023-05-18T16:34:13.326Z,18.67
2023-05-18T16:36:45.684Z,18.72
2023-05-18T16:39:13.842Z,18.62
2023-05-18T16:41:41.976Z,18.47
2023-05-18T16:44:10.127Z,18.54
2023-05-18T16:46:38.270Z,18.32
2023-05-18T16:49:06.403Z,18.21
2023-05-18T16:51:34.540Z,18.18
2023-05-18T16:54:05.728Z,18.32
2023-05-18T16:56:35.424Z,18.62
2023-05-18T16:59:03.648Z,18.59
2023-05-18T17:01:32.656Z,18.29
2023-05-18T17:04:00.942Z,18.10
2023-05-18T17:06:29.199Z,18.18
2023-05-18T17:08:58.777Z,18.34
2023-05-18T17:11:28.626Z,17.95
2023-05-18T17:13:57.826Z,18.01
2023-05-18T17:16:27.304Z,17.99
2023-05-18T17:18:56.295Z,17.83
2023-05-18T17:21:26.837Z,17.84
2023-05-18T17:23:55.110Z,18.15
2023-05-18T17:26:25.503Z,17.74
2023-05-18T17:28:55.089Z,17.68
2023-05-18T17:31:23.240Z,17.70
2023-05-18T17:33:51.423Z,17.53
2023-05-18T17:36:22.038Z,17.35
2023-05-18T17:38:50.229Z,17.11
2023-05-18T17:41:19.674Z,17.11
2023-05-18T17:43:48.191Z,17.09
2023-05-18T17:46:17.805Z,16.87
2023-05-18T17:48:45.935Z,16.87
2023-05-18T17:51:14.073Z,16.67
2023-05-18T17:53:42.820Z,16.72
2023-05-18T17:56:12.265Z,16.67
2023-05-18T17:58:43.323Z,16.72
2023-05-18T18:01:12.250Z,16.69
2023-05-18T18:03:41.907Z,16.48
2023-05-18T18:06:12.371Z,16.49
2023-05-18T18:08:45.112Z,16.40
2023-05-18T18:11:13.403Z,16.20
2023-05-18T18:13:41.528Z,16.08
2023-05-18T18:16:09.740Z,16.00
2023-05-18T18:18:38.278Z,16.03
2023-05-18T18:21:08.420Z,15.83
2023-05-18T18:23:37.937Z,15.93
2023-05-18T18:26:09.305Z,15.93
2023-05-18T18:28:39.854Z,15.84
2023-05-18T18:31:08.033Z,15.75
2023-05-18T18:33:36.188Z,15.61
2023-05-18T18:36:05.805Z,15.58
2023-05-18T18:38:37.865Z,15.51
2023-05-18T18:41:06.184Z,15.40
2023-05-18T18:43:35.231Z,15.36
2023-05-18T18:46:03.529Z,15.24
2023-05-18T18:48:31.758Z,15.30
2023-05-18T18:50:59.824Z,15.37
2023-05-18T18:53:27.973Z,15.18
2023-05-18T18:55:59.664Z,14.96
2023-05-18T18:58:28.070Z,15.03
2023-05-18T19:00:56.160Z,15.06
2023-05-18T19:03:24.282Z,14.99
2023-05-18T19:05:52.363Z,14.93
2023-05-18T19:08:20.585Z,14.87
2023-05-18T19:10:48.719Z,14.70
2023-05-18T19:13:18.225Z,14.60
2023-05-18T19:15:50.320Z,14.50
2023-05-18T19:18:18.683Z,14.56
2023-05-18T19:20:46.885Z,14.48
2023-05-18T19:23:16.233Z,14.27
2023-05-18T19:25:44.658Z,14.31
2023-05-18T19:28:12.871Z,14.37
2023-05-18T19:30:42.393Z,14.26
2023-05-18T19:33:10.789Z,14.06
2023-05-18T19:35:39.174Z,14.05
2023-05-18T19:38:07.301Z,14.06
2023-05-18T19:40:35.440Z,13.95
2023-05-18T19:43:03.706Z,13.94
2023-05-18T19:45:33.779Z,13.85
2023-05-18T19:48:03.521Z,13.82
2023-05-18T19:50:31.735Z,13.71
2023-05-18T19:52:59.853Z,13.58
2023-05-18T19:55:27.962Z,13.55
2023-05-18T19:57:56.353Z,13.48
2023-05-18T20:00:25.671Z,13.43
2023-05-18T20:02:53.879Z,13.35
2023-05-18T20:05:25.586Z,13.22
2023-05-18T20:07:53.711Z,13.18
2023-05-18T20:10:21.928Z,13.11
2023-05-18T20:12:50.322Z,13.13
2023-05-18T20:15:19.116Z,13.07
2023-05-18T20:17:47.327Z,12.99
2023-05-18T20:20:15.477Z,12.77
2023-05-18T20:22:47.273Z,12.72
2023-05-18T20:25:15.687Z,12.67
2023-05-18T20:27:44.086Z,12.48
2023-05-18T20:30:12.606Z,12.33
2023-05-18T20:32:40.836Z,12.41
2023-05-18T20:35:12.781Z,12.36
2023-05-18T20:37:41.618Z,12.38
2023-05-18T20:40:13.434Z,12.34
2023-05-18T20:42:41.779Z,12.12
2023-05-18T20:45:10.809Z,12.06
2023-05-18T20:47:38.952Z,12.14
2023-05-18T20:50:09.156Z,12.04
2023-05-18T20:52:39.736Z,12.06
2023-05-18T20:55:09.175Z,12.13
2023-05-18T20:57:40.136Z,12.13
2023-05-18T21:00:10.233Z,12.00
2023-05-18T21:02:38.459Z,11.93
2023-05-18T21:05:07.272Z,11.78
2023-05-18T21:07:40.435Z,11.57
2023-05-18T21:10:09.272Z,11.55
2023-05-18T21:12:39.123Z,11.49
2023-05-18T21:15:08.452Z,11.31
2023-05-18T21:17:36.593Z,11.12
2023-05-18T21:20:05.848Z,11.15
2023-05-18T21:22:33.944Z,11.16
2023-05-18T21:25:06.306Z,11.09
2023-05-18T21:27:34.721Z,11.12
2023-05-18T21:30:08.741Z,11.03
2023-05-18T21:32:37.052Z,10.97
2023-05-18T21:35:06.332Z,10.97
2023-05-18T21:37:34.430Z,10.88
2023-05-18T21:40:03.210Z,10.76
2023-05-18T21:42:32.734Z,10.64
2023-05-18T21:45:01.045Z,10.53
2023-05-18T21:47:30.644Z,10.55
2023-05-18T21:49:58.781Z,10.54
2023-05-18T21:52:26.952Z,10.47
2023-05-18T21:54:55.146Z,10.43
2023-05-18T21:57:23.499Z,10.59
2023-05-18T21:59:51.657Z,10.62
2023-05-18T22:02:19.741Z,10.61
2023-05-18T22:04:49.470Z,10.45
2023-05-18T22:07:17.680Z,10.44
2023-05-18T22:09:46.480Z,10.30
2023-05-18T22:12:14.542Z,10.23
2023-05-18T22:14:42.647Z,10.24
2023-05-18T22:17:10.850Z,10.17
2023-05-18T22:19:39.185Z,10.03
2023-05-18T22:22:13.808Z,10.00
2023-05-18T22:24:45.059Z,10.10
2023-05-18T22:27:13.205Z,9.94
2023-05-18T22:29:44.233Z,9.95
2023-05-18T22:32:12.491Z,9.87
2023-05-18T22:34:40.599Z,9.91
2023-05-18T22:37:12.629Z,9.93
2023-05-18T22:39:43.775Z,9.94
2023-05-18T22:42:12.137Z,9.94
2023-05-18T22:44:40.467Z,9.94
2023-05-18T22:47:09.414Z,9.85
2023-05-18T22:49:37.492Z,9.93
2023-05-18T22:52:06.728Z,9.89
2023-05-18T22:54:36.653Z,9.93
2023-05-18T22:57:05.173Z,9.85
2023-05-18T22:59:33.200Z,9.81
2023-05-18T23:02:01.360Z,9.72
2023-05-18T23:04:29.579Z,9.59
2023-05-18T23:06:58.088Z,9.58
2023-05-18T23:09:27.163Z,9.49
2023-05-18T23:11:56.781Z,9.45
2023-05-18T23:14:25.296Z,9.42
2023-05-18T23:16:58.399Z,9.34
2023-05-18T23:19:28.874Z,9.15
2023-05-18T23:21:57.645Z,9.08
2023-05-18T23:24:25.840Z,9.10
2023-05-18T23:26:53.990Z,9.06
2023-05-18T23:29:23.451Z,9.03
2023-05-18T23:31:52.419Z,9.14
2023-05-18T23:34:21.065Z,9.03
2023-05-18T23:36:53.907Z,9.03
2023-05-18T23:39:23.255Z,9.01
2023-05-18T23:41:55.437Z,9.01
2023-05-18T23:44:25.768Z,9.08
2023-05-18T23:46:54.861Z,9.09
2023-05-18T23:49:23.556Z,9.00
2023-05-18T23:51:53.214Z,8.90
2023-05-18T23:54:22.434Z,8.89
2023-05-18T23:56:51.620Z,8.87
2023-05-18T23:59:20.538Z,8.89
